Time;durP1;ratioP1;P1;durP2;ratioP2;P2;SDS_P1;SDS_P2;PMS_P1;PMS_P2;Temp;Humidity;BMP_temperature;BMP_pressure;BME280_temperature;BME280_humidity;BME280_pressure;Samples;Min_cycle;Max_cycle;Signal;HPM_P1;HPM_P2
2023/03/23 05:16:05;;;;;;;34.72;17.87;;;;;;;3.73;100.00;100208.81;5563431;32;219992;-86
2023/03/23 05:19:08;;;;;;;37.72;19.05;;;;;;;3.73;100.00;100208.81;5553390;32;33707;-86
2023/03/23 05:22:12;;;;;;;32.00;18.80;;;;;;;3.34;100.00;100214.09;5550047;32;34215;-86
2023/03/23 05:25:21;;;;;;;29.92;17.15;;;;;;;3.46;100.00;100212.94;5548731;32;33393;-86
2023/03/23 05:28:23;;;;;;;28.87;16.52;;;;;;;3.62;100.00;100203.81;5547895;32;34799;-86
2023/03/23 05:31:26;;;;;;;28.42;17.25;;;;;;;3.84;100.00;100205.06;5549327;32;34615;-85
2023/03/23 05:34:32;;;;;;;31.50;16.83;;;;;;;4.01;100.00;100200.25;5549139;32;33874;-85
2023/03/23 05:37:34;;;;;;;28.80;16.58;;;;;;;4.23;100.00;100191.81;5555104;32;33760;-86
2023/03/23 05:40:37;;;;;;;30.77;15.80;;;;;;;4.48;100.00;100195.56;5559759;32;34855;-86
2023/03/23 05:43:40;;;;;;;27.37;16.52;;;;;;;4.69;100.00;100197.56;5560102;32;34891;-86
2023/03/23 05:46:43;;;;;;;31.17;17.55;;;;;;;4.94;100.00;100191.62;5559300;32;34114;-85
2023/03/23 05:49:45;;;;;;;26.48;16.73;;;;;;;5.19;100.00;100184.78;5549212;32;34101;-86
2023/03/23 05:52:51;;;;;;;26.80;16.90;;;;;;;5.46;100.00;100192.72;5548407;32;34068;-86
2023/03/23 05:55:58;;;;;;;28.70;17.62;;;;;;;5.65;100.00;100185.94;5547832;32;34556;-86
2023/03/23 05:59:01;;;;;;;33.88;17.17;;;;;;;5.92;100.00;100185.09;5548448;32;32641;-87
2023/03/23 06:02:05;;;;;;;42.17;21.27;;;;;;;6.27;100.00;100179.56;5547606;32;34028;-86
2023/03/23 06:05:07;;;;;;;32.60;18.52;;;;;;;6.92;100.00;100182.50;5548337;32;34024;-86
2023/03/23 06:08:10;;;;;;;35.47;19.95;;;;;;;7.93;100.00;100186.47;5548756;32;33948;-86
2023/03/23 06:11:13;;;;;;;32.90;19.95;;;;;;;9.93;100.00;100188.06;5548792;32;33998;-86
2023/03/23 06:14:17;;;;;;;30.98;19.00;;;;;;;12.31;95.70;100191.12;5551218;32;33426;-86
2023/03/23 06:17:19;;;;;;;33.60;20.05;;;;;;;14.04;82.59;100198.12;5555841;32;34722;-86
2023/03/23 06:20:24;;;;;;;28.73;19.35;;;;;;;16.44;69.62;100190.81;5551196;32;34822;-85
2023/03/23 06:23:26;;;;;;;29.77;19.12;;;;;;;18.08;58.84;100184.97;5548273;32;33892;-85
2023/03/23 06:26:33;;;;;;;30.17;19.25;;;;;;;19.45;48.24;100186.63;5537449;32;34113;-86
2023/03/23 06:29:37;;;;;;;26.12;17.58;;;;;;;19.90;45.93;100186.09;5534530;32;34428;-86
2023/03/23 06:32:38;;;;;;;28.60;19.35;;;;;;;20.74;42.93;100185.53;5540966;32;33863;-85
2023/03/23 06:35:43;;;;;;;32.88;18.55;;;;;;;20.85;41.93;100184.50;5550553;32;34294;-86
2023/03/23 06:38:48;;;;;;;30.73;18.05;;;;;;;20.64;40.66;100187.41;5513292;32;33755;-86
2023/03/23 06:41:52;;;;;;;32.42;18.52;;;;;;;20.60;41.21;100179.63;5512955;32;33273;-85
2023/03/23 06:44:56;;;;;;;34.40;18.45;;;;;;;19.96;41.99;100190.06;5512302;32;34157;-86
2023/03/23 06:47:58;;;;;;;26.08;16.35;;;;;;;19.91;42.99;100193.16;5514700;32;34542;-85
2023/03/23 06:51:03;;;;;;;25.17;17.55;;;;;;;20.26;41.46;100188.19;5514509;32;34196;-86
2023/03/23 06:54:06;;;;;;;24.55;16.40;;;;;;;21.32;38.88;100193.53;5543603;32;34033;-86
2023/03/23 06:57:10;;;;;;;25.33;16.95;;;;;;;21.04;38.64;100201.59;5548359;32;35012;-90
2023/03/23 07:00:13;;;;;;;21.85;14.90;;;;;;;20.36;40.10;100198.12;5541899;32;34110;-90
2023/03/23 07:03:15;;;;;;;20.50;14.63;;;;;;;19.99;40.74;100189.78;5543372;32;33897;-90
2023/03/23 07:06:19;;;;;;;19.00;13.55;;;;;;;18.89;41.38;100192.38;5544938;32;33895;-90
2023/03/23 07:09:22;;;;;;;18.85;13.38;;;;;;;17.70;43.33;100200.59;5544055;32;34072;-86
2023/03/23 07:12:24;;;;;;;18.87;14.05;;;;;;;17.23;43.65;100197.19;5550260;32;33946;-86
2023/03/23 07:15:26;;;;;;;20.70;14.85;;;;;;;16.50;45.95;100199.34;5553480;32;33708;-87
2023/03/23 07:18:30;;;;;;;22.30;14.25;;;;;;;16.74;45.86;100204.59;5554519;32;33918;-87
2023/03/23 07:21:32;;;;;;;23.23;14.80;;;;;;;17.40;44.29;100205.66;5538692;32;33786;-87
2023/03/23 07:24:35;;;;;;;23.98;15.48;;;;;;;17.97;42.56;100218.91;5545360;32;34122;-87
2023/03/23 07:27:37;;;;;;;22.33;15.10;;;;;;;17.45;44.58;100210.66;5552764;32;33717;-87
2023/03/23 07:30:39;;;;;;;23.92;15.20;;;;;;;18.29;42.06;100218.06;5558752;32;33294;-87
2023/03/23 07:33:41;;;;;;;22.23;14.20;;;;;;;19.66;39.31;100216.06;5564272;32;33991;-87
2023/03/23 07:36:43;;;;;;;20.02;13.38;;;;;;;20.27;37.89;100224.06;5554522;32;34975;-87
2023/03/23 07:39:46;;;;;;;21.08;14.43;;;;;;;20.03;38.55;100217.28;5552391;32;34070;-85
2023/03/23 07:42:53;;;;;;;24.95;14.27;;;;;;;20.26;38.32;100219.69;5554743;32;33766;-85
2023/03/23 07:45:57;;;;;;;23.52;14.27;;;;;;;19.95;37.73;100222.50;5554276;32;34701;-85
2023/03/23 07:49:00;;;;;;;23.77;13.85;;;;;;;19.99;37.68;100224.78;5552031;32;34501;-87
2023/03/23 07:52:02;;;;;;;19.02;13.70;;;;;;;21.91;35.31;100225.50;5535816;32;34018;-87
2023/03/23 07:55:07;;;;;;;23.15;14.10;;;;;;;23.16;32.32;100221.81;5548386;32;34186;-87
2023/03/23 07:58:09;;;;;;;21.12;14.20;;;;;;;24.16;30.91;100219.34;5555883;32;34250;-87
2023/03/23 08:01:12;;;;;;;18.58;13.88;;;;;;;25.00;29.54;100226.38;5553724;32;35409;-86
2023/03/23 08:04:15;;;;;;;22.75;14.55;;;;;;;24.21;29.70;100225.12;5550422;32;33906;-86
2023/03/23 08:07:19;;;;;;;22.52;15.20;;;;;;;23.26;31.68;100224.38;5553291;32;33968;-86
2023/03/23 08:10:23;;;;;;;19.42;15.05;;;;;;;23.61;31.37;100221.62;5535352;32;34218;-86
2023/03/23 08:13:25;;;;;;;22.48;15.43;;;;;;;24.57;29.45;100226.59;5543295;32;34078;-86
2023/03/23 08:16:28;;;;;;;22.02;14.35;;;;;;;24.83;29.26;100231.00;5548689;32;33679;-86
2023/03/23 08:19:30;;;;;;;20.67;15.32;;;;;;;23.80;30.22;100225.91;5551695;32;34064;-87
2023/03/23 08:22:33;;;;;;;20.83;14.80;;;;;;;22.62;31.84;100218.34;5552535;32;35065;-87
2023/03/23 08:25:37;;;;;;;23.02;15.35;;;;;;;23.67;30.94;100229.09;5551257;32;34855;-87
2023/03/23 08:28:39;;;;;;;21.25;14.23;;;;;;;25.56;28.45;100239.03;5545903;32;34404;-86
2023/03/23 08:31:44;;;;;;;21.15;13.90;;;;;;;25.65;27.64;100234.41;5550588;32;33985;-86
2023/03/23 08:34:48;;;;;;;24.90;14.35;;;;;;;24.28;29.28;100222.59;5542565;32;33650;-87
2023/03/23 08:37:52;;;;;;;23.33;14.98;;;;;;;24.06;30.35;100230.34;5539219;32;34050;-87
2023/03/23 08:40:59;;;;;;;19.90;14.50;;;;;;;22.48;31.96;100221.59;5567254;32;34632;-87
2023/03/23 08:44:04;;;;;;;19.45;13.57;;;;;;;22.33;32.53;100227.56;5546958;32;32742;-87
2023/03/23 08:47:07;;;;;;;19.98;12.27;;;;;;;22.40;32.04;100221.53;5539422;32;33778;-87
2023/03/23 08:50:12;;;;;;;18.70;13.18;;;;;;;20.53;34.66;100223.44;5540459;32;33714;-87
2023/03/23 08:53:15;;;;;;;21.67;14.43;;;;;;;21.04;34.43;100229.44;5524638;32;34346;-87
2023/03/23 08:56:17;;;;;;;20.02;12.93;;;;;;;20.79;35.05;100220.13;5564689;32;34197;-87
2023/03/23 08:59:19;;;;;;;16.98;13.10;;;;;;;20.07;35.66;100218.72;5553334;32;34370;-87
2023/03/23 09:02:23;;;;;;;22.70;12.40;;;;;;;20.55;35.28;100218.75;5545853;32;34380;-87
2023/03/23 09:05:27;;;;;;;18.12;12.30;;;;;;;20.89;35.17;100218.28;5540488;32;33838;-86
2023/03/23 09:08:31;;;;;;;18.98;13.00;;;;;;;21.06;34.23;100223.87;5549768;32;33560;-86
2023/03/23 09:11:34;;;;;;;24.08;12.65;;;;;;;20.87;34.59;100213.03;5538530;32;33874;-88
2023/03/23 09:14:37;;;;;;;18.02;12.13;;;;;;;19.96;36.76;100208.06;5529667;32;35239;-87
2023/03/23 09:17:44;;;;;;;17.25;12.55;;;;;;;20.31;36.09;100207.47;5545271;32;34147;-89
2023/03/23 09:20:46;;;;;;;18.98;12.13;;;;;;;20.92;35.48;100214.44;5551855;32;35215;-91
2023/03/23 09:23:48;;;;;;;20.05;12.20;;;;;;;21.01;35.03;100213.53;5549423;32;35162;-91
2023/03/23 09:26:52;;;;;;;20.88;12.23;;;;;;;20.92;34.80;100204.47;5550884;32;34940;-88
2023/03/23 09:29:55;;;;;;;17.02;12.05;;;;;;;20.50;35.26;100197.66;5558198;32;32761;-87
2023/03/23 09:32:57;;;;;;;19.50;11.98;;;;;;;19.97;36.68;100201.69;5548367;32;34347;-86
2023/03/23 09:35:59;;;;;;;16.33;11.88;;;;;;;20.18;36.94;100197.00;5548803;32;33811;-87
2023/03/23 09:39:01;;;;;;;18.27;11.95;;;;;;;20.60;35.98;100197.63;5558695;32;34220;-87
2023/03/23 09:42:35;;;;;;;16.35;11.63;;;;;;;21.38;34.94;100191.03;5548364;32;33863;-85
2023/03/23 09:46:13;;;;;;;15.75;11.12;;;;;;;20.69;35.72;100204.84;5561855;32;33156;-85
2023/03/23 09:49:21;;;;;;;21.42;12.00;;;;;;;21.45;35.02;100194.00;5552820;32;34016;-85
2023/03/23 09:52:31;;;;;;;19.10;11.52;;;;;;;22.07;34.12;100198.66;5560584;32;34005;-84
2023/03/23 09:55:34;;;;;;;;;;;;;;;21.86;34.03;100188.19;5554394;32;34578;-84
2023/03/23 09:58:46;;;;;;;15.63;11.38;;;;;;;21.10;35.06;100187.53;5555147;32;34344;-84
2023/03/23 10:01:52;;;;;;;16.60;11.63;;;;;;;21.35;35.50;100180.56;5555575;32;33904;-84
2023/03/23 10:04:58;;;;;;;14.65;10.13;;;;;;;21.60;34.57;100180.81;5554818;32;34130;-84
2023/03/23 10:08:03;;;;;;;19.80;11.12;;;;;;;21.03;35.32;100194.50;5553466;32;34213;-85
2023/03/23 10:11:26;;;;;;;15.82;10.90;;;;;;;21.06;35.85;100181.56;5571859;32;33883;-86
2023/03/23 10:14:52;;;;;;;19.45;11.32;;;;;;;21.44;35.68;100176.13;5564450;32;34701;-89
2023/03/23 10:18:01;;;;;;;20.25;11.30;;;;;;;20.94;36.10;100178.25;5562011;32;36517;-86
2023/03/23 10:21:03;;;;;;;19.87;11.20;;;;;;;20.48;36.76;100167.31;5546904;32;33820;-85
2023/03/23 10:24:13;;;;;;;19.35;11.55;;;;;;;19.83;38.51;100159.88;5553420;32;33533;-86
2023/03/23 10:27:25;;;;;;;19.27;11.07;;;;;;;19.80;38.44;100156.47;5554165;32;34341;-86
2023/03/23 10:30:36;;;;;;;14.95;10.27;;;;;;;19.82;38.60;100147.41;5553229;32;34202;-86
2023/03/23 10:33:50;;;;;;;15.15;10.00;;;;;;;19.86;38.42;100138.06;5552525;32;33688;-86
2023/03/23 10:37:17;;;;;;;16.52;10.07;;;;;;;19.83;38.69;100144.59;5544959;32;33834;-86
2023/03/23 10:40:26;;;;;;;15.45;10.00;;;;;;;20.11;38.27;100142.00;5535481;32;33786;-86
2023/03/23 10:43:29;;;;;;;19.12;9.85;;;;;;;19.78;38.79;100136.91;5540519;32;34097;-87
2023/03/23 10:46:50;;;;;;;19.12;11.40;;;;;;;19.44;39.41;100131.97;5538079;32;34478;-86
2023/03/23 10:49:57;;;;;;;20.08;12.85;;;;;;;19.42;39.69;100136.66;5535319;32;34274;-86
2023/03/23 10:53:03;;;;;;;21.10;11.25;;;;;;;19.21;39.83;100134.91;5555182;32;33978;-86
2023/03/23 10:56:18;;;;;;;16.67;10.18;;;;;;;19.52;39.69;100120.50;5552229;32;34720;-86
2023/03/23 10:59:28;;;;;;;14.45;9.15;;;;;;;19.80;39.05;100126.88;5555807;32;34322;-90
2023/03/23 11:02:30;;;;;;;14.73;9.40;;;;;;;20.05;38.86;100127.31;5545458;32;34767;-87
2023/03/23 11:05:46;;;;;;;13.80;8.68;;;;;;;20.23;38.41;100129.25;5549490;32;34268;-87
2023/03/23 11:08:51;;;;;;;15.50;8.88;;;;;;;20.51;38.09;100136.53;5554139;32;34396;-87
2023/03/23 11:11:55;;;;;;;17.35;8.82;;;;;;;20.34;37.77;100128.22;5543535;32;34950;-87
2023/03/23 11:15:15;;;;;;;15.82;8.80;;;;;;;20.12;38.43;100121.34;5545389;32;34126;-86
2023/03/23 11:18:36;;;;;;;13.60;9.35;;;;;;;20.03;38.78;100113.16;5548473;32;34200;-85
2023/03/23 11:21:38;;;;;;;13.00;8.18;;;;;;;20.68;37.76;100121.44;5549943;32;34567;-86
2023/03/23 11:24:43;;;;;;;11.75;7.93;;;;;;;20.90;36.99;100103.19;5551007;32;34138;-86
2023/03/23 11:27:45;;;;;;;13.40;7.82;;;;;;;21.04;36.36;100104.53;5554928;32;34189;-85
2023/03/23 11:30:48;;;;;;;12.18;5.78;;;;;;;21.37;35.80;100097.63;5551275;32;34522;-85
2023/03/23 11:34:03;;;;;;;9.30;5.80;;;;;;;21.46;34.68;100101.25;5547879;32;33592;-86
2023/03/23 11:37:09;;;;;;;10.55;5.60;;;;;;;20.89;35.44;100118.53;5552044;32;34175;-85
2023/03/23 11:40:18;;;;;;;9.85;5.20;;;;;;;20.74;35.91;100121.69;5540456;32;33946;-84
2023/03/23 11:43:24;;;;;;;8.75;5.45;;;;;;;20.69;35.54;100118.59;5547946;32;34568;-85
2023/03/23 11:46:34;;;;;;;8.93;5.57;;;;;;;20.10;36.44;100104.50;5543505;32;34201;-86
2023/03/23 11:49:50;;;;;;;6.55;5.40;;;;;;;20.07;36.65;100100.25;5555671;32;34252;-86
2023/03/23 11:53:15;;;;;;;7.43;5.60;;;;;;;19.73;36.71;100092.59;5550670;32;34234;-86
2023/03/23 11:56:27;;;;;;;15.07;5.87;;;;;;;19.95;36.91;100090.59;5556325;32;34115;-90
2023/03/23 11:59:33;;;;;;;8.18;5.22;;;;;;;19.75;37.23;100082.53;5546424;32;34360;-88
2023/03/23 12:03:12;;;;;;;13.43;5.72;;;;;;;20.10;36.39;100083.78;5547460;32;33689;-87
2023/03/23 12:06:37;;;;;;;9.30;5.12;;;;;;;20.64;36.12;100076.91;5551096;32;33803;-89
2023/03/23 12:09:49;;;;;;;10.07;4.65;;;;;;;20.79;35.86;100075.44;5554797;32;33495;-86
2023/03/23 12:12:50;;;;;;;7.95;5.30;;;;;;;21.01;35.03;100067.94;5518087;32;34615;-87
2023/03/23 12:16:01;;;;;;;12.02;5.47;;;;;;;20.74;35.50;100058.84;5544885;32;34443;-87
2023/03/23 12:19:26;;;;;;;6.75;4.53;;;;;;;21.06;35.41;100068.31;5574798;32;34111;-87
2023/03/23 12:23:09;;;;;;;9.63;5.40;;;;;;;21.45;35.09;100048.28;5537670;32;35099;-87
2023/03/23 12:26:26;;;;;;;9.15;5.05;;;;;;;21.00;34.84;100042.84;5535494;32;34014;-88
2023/03/23 12:29:54;;;;;;;7.82;4.60;;;;;;;21.11;35.19;100035.50;5555439;32;34643;-88
2023/03/23 12:33:28;;;;;;;7.22;4.87;;;;;;;20.79;34.94;100045.78;5545715;32;32649;-86
2023/03/23 12:36:58;;;;;;;8.73;4.78;;;;;;;20.84;34.74;100037.22;5533654;32;33924;-88
2023/03/23 12:40:22;;;;;;;9.95;4.50;;;;;;;20.91;35.33;100041.03;5550694;32;34865;-87
2023/03/23 12:43:28;;;;;;;6.55;4.90;;;;;;;21.05;35.04;100041.50;5550022;32;34254;-88
2023/03/23 12:46:55;;;;;;;10.27;4.55;;;;;;;21.16;34.43;100030.50;5541587;32;34817;-87
2023/03/23 12:50:14;;;;;;;8.40;4.43;;;;;;;20.47;35.75;100031.75;5536469;32;34179;-91
2023/03/23 12:53:28;;;;;;;12.30;4.50;;;;;;;20.94;35.37;100024.56;5548831;32;34234;-87
2023/03/23 12:56:52;;;;;;;6.75;4.20;;;;;;;20.87;35.31;100021.62;5546976;32;34090;-87
2023/03/23 13:00:02;;;;;;;6.60;4.53;;;;;;;21.01;35.55;100027.50;5548284;32;33802;-88
2023/03/23 13:03:17;;;;;;;6.20;3.92;;;;;;;20.87;36.01;100016.22;5533188;32;34659;-87
2023/03/23 13:06:37;;;;;;;7.82;4.22;;;;;;;20.93;35.63;100014.78;5555421;32;34598;-87
2023/03/23 13:10:04;;;;;;;6.35;3.80;;;;;;;20.83;35.20;100011.28;5548215;32;34501;-88
2023/03/23 13:13:14;;;;;;;5.78;4.00;;;;;;;20.83;36.02;100005.88;5541195;32;33665;-88
2023/03/23 13:16:20;;;;;;;8.43;4.00;;;;;;;20.76;35.59;100008.34;5545216;32;34278;-88
2023/03/23 13:19:41;;;;;;;5.95;4.10;;;;;;;20.58;35.87;100022.63;5546500;32;32732;-87
2023/03/23 13:22:52;;;;;;;5.00;3.60;;;;;;;20.60;36.08;100011.69;5553922;32;33893;-87
2023/03/23 13:26:00;;;;;;;5.57;4.07;;;;;;;20.62;35.79;100012.41;5555106;32;35201;-90
2023/03/23 13:29:10;;;;;;;6.68;4.00;;;;;;;20.51;36.08;100002.66;5558590;32;35298;-87
2023/03/23 13:32:18;;;;;;;4.37;3.65;;;;;;;20.21;36.45;100004.66;5562575;32;34331;-88
2023/03/23 13:35:21;;;;;;;6.28;4.32;;;;;;;20.40;36.26;100008.25;5538223;32;34758;-88
2023/03/23 13:38:28;;;;;;;4.57;3.60;;;;;;;20.54;35.82;100002.38;5550070;32;35239;-88
2023/03/23 13:41:30;;;;;;;5.18;4.05;;;;;;;20.74;35.75;99994.16;5551461;32;34120;-87
2023/03/23 13:44:48;;;;;;;8.32;3.80;;;;;;;20.89;35.29;99996.34;5557800;32;34453;-88
2023/03/23 13:48:05;;;;;;;7.03;3.72;;;;;;;21.04;35.50;99991.28;5552314;32;34176;-87
2023/03/23 13:51:26;;;;;;;9.00;3.85;;;;;;;20.83;35.51;99982.47;5545338;32;33943;-87
2023/03/23 13:54:43;;;;;;;6.15;3.90;;;;;;;20.76;35.71;99978.69;5539013;32;33737;-87
2023/03/23 13:57:58;;;;;;;8.05;3.95;;;;;;;20.77;35.68;99979.53;5545062;32;34221;-87
2023/03/23 14:01:16;;;;;;;4.07;3.72;;;;;;;20.41;36.14;99974.97;5546780;32;34892;-86
2023/03/23 14:04:19;;;;;;;5.90;3.78;;;;;;;20.49;36.22;99976.88;5544784;32;34529;-87
2023/03/23 14:07:24;;;;;;;8.38;4.10;;;;;;;20.43;36.34;99973.78;5544500;32;34618;-86
2023/03/23 14:10:50;;;;;;;6.47;3.90;;;;;;;20.52;36.07;99966.62;5545059;32;34527;-86
2023/03/23 14:14:02;;;;;;;5.30;4.10;;;;;;;20.59;36.05;99973.16;5547420;32;33540;-87
2023/03/23 14:17:26;;;;;;;7.80;4.30;;;;;;;20.47;36.81;99963.59;5553956;32;35018;-86
2023/03/23 14:20:33;;;;;;;7.12;4.10;;;;;;;20.48;36.77;99976.03;5569124;32;35207;-87
2023/03/23 14:23:35;;;;;;;6.60;4.28;;;;;;;20.30;36.84;99973.28;5563061;32;34283;-86
2023/03/23 14:26:38;;;;;;;12.02;4.50;;;;;;;20.33;36.89;99971.16;5546286;32;35215;-86
2023/03/23 14:29:39;;;;;;;5.00;3.70;;;;;;;20.37;36.77;99966.31;5551396;32;34111;-86
2023/03/23 14:32:43;;;;;;;4.87;3.97;;;;;;;20.32;36.79;99964.06;5550990;32;33719;-86
2023/03/23 14:35:48;;;;;;;7.18;3.90;;;;;;;20.33;36.88;99956.84;5548695;32;33894;-86
2023/03/23 14:39:11;;;;;;;10.13;3.85;;;;;;;20.39;37.01;99960.78;5549921;32;33928;-86
2023/03/23 14:42:16;;;;;;;5.45;3.40;;;;;;;20.64;36.41;99961.91;5553320;32;34375;-86
2023/03/23 14:45:19;;;;;;;7.37;3.90;;;;;;;20.60;36.54;99957.81;5552146;32;33732;-86
2023/03/23 14:48:22;;;;;;;5.12;3.78;;;;;;;20.49;36.77;99958.03;5549249;32;34031;-88
2023/03/23 14:51:23;;;;;;;5.65;3.90;;;;;;;20.51;36.68;99961.44;5564803;31;34675;-87
2023/03/23 14:54:27;;;;;;;5.20;4.57;;;;;;;20.42;36.83;99961.31;5553419;32;34207;-86
2023/03/23 14:57:29;;;;;;;6.80;4.55;;;;;;;20.12;37.40;99959.78;5551093;32;33932;-87
2023/03/23 15:00:46;;;;;;;8.75;4.90;;;;;;;20.12;37.26;99960.63;5550886;32;33964;-87
2023/03/23 15:04:24;;;;;;;8.65;4.78;;;;;;;20.09;37.70;99952.84;5549314;32;34970;-87
2023/03/23 15:07:31;;;;;;;9.57;4.97;;;;;;;20.32;37.25;99961.38;5515620;32;34431;-89
2023/03/23 15:10:34;;;;;;;6.00;4.50;;;;;;;20.51;37.10;99961.44;5552547;32;36225;-91
2023/03/23 15:13:37;;;;;;;6.68;4.50;;;;;;;20.59;37.17;99956.13;5554765;32;33730;-89
2023/03/23 15:16:44;;;;;;;8.35;4.10;;;;;;;20.61;36.78;99954.09;5556036;32;33844;-88
2023/03/23 15:19:46;;;;;;;6.62;4.10;;;;;;;20.43;37.16;99954.09;5533118;32;34097;-87
2023/03/23 15:22:49;;;;;;;4.45;3.58;;;;;;;20.08;37.79;99961.06;5542232;32;33616;-87
2023/03/23 15:25:53;;;;;;;13.75;5.10;;;;;;;19.91;38.29;99958.13;5549644;32;34687;-87
2023/03/23 15:29:09;;;;;;;7.35;4.70;;;;;;;19.71;38.66;99968.13;5549634;32;33776;-87
2023/03/23 15:32:11;;;;;;;9.77;3.95;;;;;;;19.71;38.69;99962.75;5550540;32;33914;-87
2023/03/23 15:35:21;;;;;;;7.78;4.00;;;;;;;19.64;38.85;99957.94;5548939;32;33919;-87
2023/03/23 15:38:26;;;;;;;6.28;4.18;;;;;;;19.54;39.16;99951.75;5552996;32;34323;-87
2023/03/23 15:41:30;;;;;;;7.60;4.40;;;;;;;19.52;39.33;99959.12;5555359;32;33989;-86
2023/03/23 15:44:34;;;;;;;8.25;3.90;;;;;;;19.58;38.96;99957.69;5557746;32;34391;-87
2023/03/23 15:47:42;;;;;;;7.62;4.43;;;;;;;19.58;38.86;99947.78;5549855;32;34165;-87
2023/03/23 15:50:47;;;;;;;5.90;4.37;;;;;;;19.67;38.87;99952.25;5551191;32;33949;-87
2023/03/23 15:53:51;;;;;;;6.95;4.57;;;;;;;19.74;38.63;99949.00;5557785;32;33961;-87
2023/03/23 15:56:53;;;;;;;10.00;4.78;;;;;;;19.72;38.76;99951.00;5561837;32;34395;-86
2023/03/23 15:59:54;;;;;;;5.50;4.78;;;;;;;19.60;38.77;99953.00;5562080;32;35075;-86
2023/03/23 16:03:01;;;;;;;9.35;4.30;;;;;;;19.41;39.37;99953.91;5554777;32;34282;-86
2023/03/23 16:06:04;;;;;;;9.77;4.60;;;;;;;19.30;39.84;99953.06;5552397;32;34668;-86
2023/03/23 16:09:17;;;;;;;8.52;4.50;;;;;;;19.32;39.81;99952.91;5550267;32;34742;-86
2023/03/23 16:12:20;;;;;;;4.90;4.20;;;;;;;18.98;40.37;99956.88;5549326;32;33805;-86
2023/03/23 16:15:23;;;;;;;7.15;4.90;;;;;;;18.96;40.33;99957.00;5549107;32;33802;-86
2023/03/23 16:18:26;;;;;;;6.87;4.43;;;;;;;18.78;40.86;99961.38;5551057;32;33754;-86
2023/03/23 16:21:28;;;;;;;8.98;4.22;;;;;;;18.69;41.09;99952.31;5551057;32;34748;-86
2023/03/23 16:24:32;;;;;;;5.87;4.15;;;;;;;18.58;41.25;99956.84;5560847;32;34343;-86
